Olekminsk, Russia
Current Conditions -  °F | °C
As of 4:00 AM on Monday 24 Nov 2014 (Local Time) from UEEE Reporting Station
Light Snow Light Snow  
Wind Chill: -20°   Ceiling: 20000
Heat Index: -20°   Visibility: 6mi
Dew Point: -26°   Wind: 0mph
Humidity: 76%   Direction: NA
Pressure: 29.97"   Gusts: NA
Location:  60.37°N, 120.42°E
Report Text: UEEE 231900Z 00000MPS 9999 -SN OVC200 M29/M32 Q1015 NOSIG RMKQFE752 23490150
Loading
Personal Weather Stations






























Interactive Weather Map New forecast layout! Learn more

10-Day Weather Forecast

Advertisements
Track Severe Weather on mobile